sensor_id;sensor_type;location;lat;lon;timestamp;P1;durP1;ratioP1;P2;durP2;ratioP2
19301;SDS011;9785;59.362;12.152;2024-02-16T00:02:29;0.50;;;0.50;;
19301;SDS011;9785;59.362;12.152;2024-02-16T00:04:59;0.30;;;0.30;;
19301;SDS011;9785;59.362;12.152;2024-02-16T00:07:27;0.30;;;0.30;;
19301;SDS011;9785;59.362;12.152;2024-02-16T00:09:56;0.30;;;0.30;;
19301;SDS011;9785;59.362;12.152;2024-02-16T00:12:26;3.40;;;0.30;;
19301;SDS011;9785;59.362;12.152;2024-02-16T00:14:55;0.27;;;0.27;;
19301;SDS011;9785;59.362;12.152;2024-02-16T00:17:23;0.20;;;0.20;;
19301;SDS011;9785;59.362;12.152;2024-02-16T00:19:53;0.23;;;0.23;;
19301;SDS011;9785;59.362;12.152;2024-02-16T00:22:21;0.30;;;0.30;;
19301;SDS011;9785;59.362;12.152;2024-02-16T00:24:50;0.20;;;0.20;;
19301;SDS011;9785;59.362;12.152;2024-02-16T00:27:19;0.30;;;0.30;;
19301;SDS011;9785;59.362;12.152;2024-02-16T00:29:49;0.30;;;0.30;;
19301;SDS011;9785;59.362;12.152;2024-02-16T00:32:17;0.33;;;0.33;;
19301;SDS011;9785;59.362;12.152;2024-02-16T00:34:46;0.20;;;0.20;;
19301;SDS011;9785;59.362;12.152;2024-02-16T00:37:14;0.30;;;0.30;;
19301;SDS011;9785;59.362;12.152;2024-02-16T00:39:43;0.20;;;0.20;;
19301;SDS011;9785;59.362;12.152;2024-02-16T00:42:11;0.30;;;0.30;;
19301;SDS011;9785;59.362;12.152;2024-02-16T00:44:40;0.20;;;0.20;;
19301;SDS011;9785;59.362;12.152;2024-02-16T00:47:10;0.30;;;0.30;;
19301;SDS011;9785;59.362;12.152;2024-02-16T00:49:41;0.30;;;0.30;;
19301;SDS011;9785;59.362;12.152;2024-02-16T00:52:09;0.40;;;0.40;;
19301;SDS011;9785;59.362;12.152;2024-02-16T00:54:38;0.30;;;0.30;;
19301;SDS011;9785;59.362;12.152;2024-02-16T00:57:07;0.43;;;0.30;;
19301;SDS011;9785;59.362;12.152;2024-02-16T00:59:35;0.20;;;0.20;;
19301;SDS011;9785;59.362;12.152;2024-02-16T01:02:04;0.20;;;0.20;;
19301;SDS011;9785;59.362;12.152;2024-02-16T01:04:34;0.40;;;0.40;;
19301;SDS011;9785;59.362;12.152;2024-02-16T01:07:03;0.20;;;0.20;;
19301;SDS011;9785;59.362;12.152;2024-02-16T01:09:31;0.20;;;0.20;;
19301;SDS011;9785;59.362;12.152;2024-02-16T01:12:00;0.20;;;0.20;;
19301;SDS011;9785;59.362;12.152;2024-02-16T01:14:29;0.20;;;0.20;;
19301;SDS011;9785;59.362;12.152;2024-02-16T01:16:57;0.10;;;0.10;;
19301;SDS011;9785;59.362;12.152;2024-02-16T01:19:26;0.10;;;0.10;;
19301;SDS011;9785;59.362;12.152;2024-02-16T01:21:56;0.30;;;0.30;;
19301;SDS011;9785;59.362;12.152;2024-02-16T01:24:25;0.30;;;0.30;;
19301;SDS011;9785;59.362;12.152;2024-02-16T01:26:54;0.20;;;0.20;;
19301;SDS011;9785;59.362;12.152;2024-02-16T01:29:22;0.20;;;0.20;;
19301;SDS011;9785;59.362;12.152;2024-02-16T01:31:51;0.20;;;0.20;;
19301;SDS011;9785;59.362;12.152;2024-02-16T01:34:20;0.10;;;0.10;;
19301;SDS011;9785;59.362;12.152;2024-02-16T01:36:48;0.30;;;0.30;;
19301;SDS011;9785;59.362;12.152;2024-02-16T01:39:18;0.00;;;0.00;;
19301;SDS011;9785;59.362;12.152;2024-02-16T01:41:47;0.20;;;0.20;;
19301;SDS011;9785;59.362;12.152;2024-02-16T01:44:15;1.60;;;0.30;;
19301;SDS011;9785;59.362;12.152;2024-02-16T01:46:44;0.20;;;0.20;;
19301;SDS011;9785;59.362;12.152;2024-02-16T01:49:13;0.30;;;0.30;;
19301;SDS011;9785;59.362;12.152;2024-02-16T01:51:42;0.20;;;0.20;;
19301;SDS011;9785;59.362;12.152;2024-02-16T01:54:12;0.10;;;0.10;;
19301;SDS011;9785;59.362;12.152;2024-02-16T01:56:42;0.20;;;0.20;;
19301;SDS011;9785;59.362;12.152;2024-02-16T01:59:11;0.10;;;0.10;;
19301;SDS011;9785;59.362;12.152;2024-02-16T02:01:40;0.20;;;0.20;;
19301;SDS011;9785;59.362;12.152;2024-02-16T02:04:08;0.17;;;0.17;;
19301;SDS011;9785;59.362;12.152;2024-02-16T02:06:37;0.20;;;0.20;;
19301;SDS011;9785;59.362;12.152;2024-02-16T02:09:06;0.13;;;0.13;;
19301;SDS011;9785;59.362;12.152;2024-02-16T02:11:35;0.10;;;0.10;;
19301;SDS011;9785;59.362;12.152;2024-02-16T02:14:06;0.77;;;0.10;;
19301;SDS011;9785;59.362;12.152;2024-02-16T02:16:35;0.20;;;0.10;;
19301;SDS011;9785;59.362;12.152;2024-02-16T02:19:20;0.20;;;0.20;;
19301;SDS011;9785;59.362;12.152;2024-02-16T02:21:49;0.10;;;0.10;;
19301;SDS011;9785;59.362;12.152;2024-02-16T02:24:19;0.20;;;0.20;;
19301;SDS011;9785;59.362;12.152;2024-02-16T02:26:48;0.20;;;0.20;;
19301;SDS011;9785;59.362;12.152;2024-02-16T02:29:17;0.13;;;0.13;;
19301;SDS011;9785;59.362;12.152;2024-02-16T02:31:46;0.20;;;0.20;;
19301;SDS011;9785;59.362;12.152;2024-02-16T02:34:14;0.10;;;0.10;;
19301;SDS011;9785;59.362;12.152;2024-02-16T02:36:43;0.10;;;0.10;;
19301;SDS011;9785;59.362;12.152;2024-02-16T02:39:12;0.50;;;0.50;;
19301;SDS011;9785;59.362;12.152;2024-02-16T02:41:42;0.03;;;0.03;;
19301;SDS011;9785;59.362;12.152;2024-02-16T02:44:11;0.20;;;0.20;;
19301;SDS011;9785;59.362;12.152;2024-02-16T02:46:39;0.10;;;0.10;;
19301;SDS011;9785;59.362;12.152;2024-02-16T02:49:08;0.10;;;0.10;;
19301;SDS011;9785;59.362;12.152;2024-02-16T02:51:37;0.10;;;0.10;;
19301;SDS011;9785;59.362;12.152;2024-02-16T02:54:06;0.13;;;0.13;;
19301;SDS011;9785;59.362;12.152;2024-02-16T02:56:34;0.07;;;0.07;;
19301;SDS011;9785;59.362;12.152;2024-02-16T02:59:04;0.10;;;0.10;;
19301;SDS011;9785;59.362;12.152;2024-02-16T03:01:33;0.10;;;0.10;;
19301;SDS011;9785;59.362;12.152;2024-02-16T03:04:02;0.10;;;0.10;;
19301;SDS011;9785;59.362;12.152;2024-02-16T03:06:31;0.10;;;0.10;;
19301;SDS011;9785;59.362;12.152;2024-02-16T03:09:00;0.10;;;0.10;;
19301;SDS011;9785;59.362;12.152;2024-02-16T03:11:28;2.07;;;0.30;;
19301;SDS011;9785;59.362;12.152;2024-02-16T03:13:57;0.10;;;0.10;;
19301;SDS011;9785;59.362;12.152;2024-02-16T03:16:27;0.50;;;0.10;;
19301;SDS011;9785;59.362;12.152;2024-02-16T03:18:56;0.10;;;0.10;;
19301;SDS011;9785;59.362;12.152;2024-02-16T03:21:25;0.10;;;0.10;;
19301;SDS011;9785;59.362;12.152;2024-02-16T03:23:53;0.10;;;0.10;;
19301;SDS011;9785;59.362;12.152;2024-02-16T03:26:22;0.10;;;0.10;;
19301;SDS011;9785;59.362;12.152;2024-02-16T03:28:50;0.10;;;0.10;;
19301;SDS011;9785;59.362;12.152;2024-02-16T03:31:20;0.20;;;0.10;;
19301;SDS011;9785;59.362;12.152;2024-02-16T03:33:50;0.10;;;0.10;;
19301;SDS011;9785;59.362;12.152;2024-02-16T03:36:19;0.03;;;0.03;;
19301;SDS011;9785;59.362;12.152;2024-02-16T03:38:48;0.20;;;0.20;;
19301;SDS011;9785;59.362;12.152;2024-02-16T03:41:18;0.10;;;0.10;;
19301;SDS011;9785;59.362;12.152;2024-02-16T03:43:47;2.77;;;0.20;;
19301;SDS011;9785;59.362;12.152;2024-02-16T03:46:16;0.30;;;0.20;;
19301;SDS011;9785;59.362;12.152;2024-02-16T03:48:45;0.00;;;0.00;;
19301;SDS011;9785;59.362;12.152;2024-02-16T03:51:15;0.10;;;0.10;;
19301;SDS011;9785;59.362;12.152;2024-02-16T03:53:44;0.10;;;0.10;;
19301;SDS011;9785;59.362;12.152;2024-02-16T03:56:17;0.20;;;0.20;;
19301;SDS011;9785;59.362;12.152;2024-02-16T03:58:47;0.20;;;0.20;;
19301;SDS011;9785;59.362;12.152;2024-02-16T04:01:16;0.00;;;0.00;;
19301;SDS011;9785;59.362;12.152;2024-02-16T04:03:44;0.10;;;0.10;;
19301;SDS011;9785;59.362;12.152;2024-02-16T04:06:14;0.10;;;0.10;;
19301;SDS011;9785;59.362;12.152;2024-02-16T04:08:43;0.17;;;0.17;;
19301;SDS011;9785;59.362;12.152;2024-02-16T04:11:12;0.20;;;0.20;;
19301;SDS011;9785;59.362;12.152;2024-02-16T04:13:41;0.10;;;0.10;;
19301;SDS011;9785;59.362;12.152;2024-02-16T04:16:10;1.80;;;0.20;;
19301;SDS011;9785;59.362;12.152;2024-02-16T04:18:39;0.30;;;0.30;;
19301;SDS011;9785;59.362;12.152;2024-02-16T04:21:07;0.27;;;0.27;;
19301;SDS011;9785;59.362;12.152;2024-02-16T04:23:37;0.23;;;0.23;;
19301;SDS011;9785;59.362;12.152;2024-02-16T04:26:06;0.20;;;0.20;;
19301;SDS011;9785;59.362;12.152;2024-02-16T04:28:35;0.13;;;0.13;;
19301;SDS011;9785;59.362;12.152;2024-02-16T04:31:03;0.10;;;0.10;;
19301;SDS011;9785;59.362;12.152;2024-02-16T04:33:32;0.20;;;0.20;;
19301;SDS011;9785;59.362;12.152;2024-02-16T04:36:01;0.47;;;0.20;;
19301;SDS011;9785;59.362;12.152;2024-02-16T04:38:30;0.07;;;0.07;;
19301;SDS011;9785;59.362;12.152;2024-02-16T04:41:00;0.20;;;0.20;;
19301;SDS011;9785;59.362;12.152;2024-02-16T04:43:29;0.20;;;0.20;;
19301;SDS011;9785;59.362;12.152;2024-02-16T04:45:57;0.20;;;0.20;;
19301;SDS011;9785;59.362;12.152;2024-02-16T04:48:26;0.13;;;0.13;;
19301;SDS011;9785;59.362;12.152;2024-02-16T04:50:55;0.10;;;0.10;;
19301;SDS011;9785;59.362;12.152;2024-02-16T04:53:23;0.20;;;0.20;;
19301;SDS011;9785;59.362;12.152;2024-02-16T04:55:52;0.20;;;0.20;;
19301;SDS011;9785;59.362;12.152;2024-02-16T04:58:23;0.30;;;0.30;;
19301;SDS011;9785;59.362;12.152;2024-02-16T05:00:51;0.33;;;0.33;;
19301;SDS011;9785;59.362;12.152;2024-02-16T05:03:20;26.43;;;1.40;;
19301;SDS011;9785;59.362;12.152;2024-02-16T05:05:49;2.23;;;0.30;;
19301;SDS011;9785;59.362;12.152;2024-02-16T05:08:18;5.70;;;0.63;;
19301;SDS011;9785;59.362;12.152;2024-02-16T05:10:46;1.60;;;0.10;;
19301;SDS011;9785;59.362;12.152;2024-02-16T05:13:15;59.83;;;2.30;;
19301;SDS011;9785;59.362;12.152;2024-02-16T05:15:45;43.50;;;3.07;;
19301;SDS011;9785;59.362;12.152;2024-02-16T05:18:15;1.10;;;0.20;;
19301;SDS011;9785;59.362;12.152;2024-02-16T05:20:44;1.47;;;0.23;;
19301;SDS011;9785;59.362;12.152;2024-02-16T05:23:13;188.37;;;6.53;;
19301;SDS011;9785;59.362;12.152;2024-02-16T05:25:42;1.50;;;0.40;;
19301;SDS011;9785;59.362;12.152;2024-02-16T05:28:10;0.47;;;0.37;;
19301;SDS011;9785;59.362;12.152;2024-02-16T05:30:40;3.10;;;0.30;;
19301;SDS011;9785;59.362;12.152;2024-02-16T05:33:10;0.20;;;0.20;;
19301;SDS011;9785;59.362;12.152;2024-02-16T05:35:40;59.50;;;2.90;;
19301;SDS011;9785;59.362;12.152;2024-02-16T05:38:11;103.70;;;4.07;;
19301;SDS011;9785;59.362;12.152;2024-02-16T05:40:47;98.53;;;3.37;;
19301;SDS011;9785;59.362;12.152;2024-02-16T05:43:23;0.50;;;0.50;;
19301;SDS011;9785;59.362;12.152;2024-02-16T05:45:51;0.53;;;0.53;;
19301;SDS011;9785;59.362;12.152;2024-02-16T05:48:22;0.70;;;0.70;;
19301;SDS011;9785;59.362;12.152;2024-02-16T05:50:53;1.87;;;0.70;;
19301;SDS011;9785;59.362;12.152;2024-02-16T05:53:25;89.63;;;3.97;;
19301;SDS011;9785;59.362;12.152;2024-02-16T05:55:54;30.73;;;3.60;;
19301;SDS011;9785;59.362;12.152;2024-02-16T05:58:22;36.87;;;1.60;;
19301;SDS011;9785;59.362;12.152;2024-02-16T06:00:51;0.40;;;0.40;;
19301;SDS011;9785;59.362;12.152;2024-02-16T06:03:20;18.53;;;1.30;;
19301;SDS011;9785;59.362;12.152;2024-02-16T06:05:49;13.70;;;0.60;;
19301;SDS011;9785;59.362;12.152;2024-02-16T06:08:18;2.37;;;0.50;;
19301;SDS011;9785;59.362;12.152;2024-02-16T06:10:47;9.23;;;0.73;;
19301;SDS011;9785;59.362;12.152;2024-02-16T06:13:20;0.50;;;0.47;;
19301;SDS011;9785;59.362;12.152;2024-02-16T06:15:48;4.50;;;0.60;;
19301;SDS011;9785;59.362;12.152;2024-02-16T06:18:17;149.73;;;5.30;;
19301;SDS011;9785;59.362;12.152;2024-02-16T06:20:46;14.30;;;1.27;;
19301;SDS011;9785;59.362;12.152;2024-02-16T06:23:16;81.73;;;6.07;;
19301;SDS011;9785;59.362;12.152;2024-02-16T06:25:45;66.23;;;2.70;;
19301;SDS011;9785;59.362;12.152;2024-02-16T06:28:13;27.27;;;1.80;;
19301;SDS011;9785;59.362;12.152;2024-02-16T06:30:42;1.27;;;1.10;;
19301;SDS011;9785;59.362;12.152;2024-02-16T06:33:10;4.37;;;1.73;;
19301;SDS011;9785;59.362;12.152;2024-02-16T06:35:39;37.17;;;5.57;;
19301;SDS011;9785;59.362;12.152;2024-02-16T06:38:07;65.97;;;6.90;;
19301;SDS011;9785;59.362;12.152;2024-02-16T06:40:38;22.40;;;4.47;;
19301;SDS011;9785;59.362;12.152;2024-02-16T06:43:07;10.50;;;4.47;;
19301;SDS011;9785;59.362;12.152;2024-02-16T06:45:36;13.70;;;5.40;;
19301;SDS011;9785;59.362;12.152;2024-02-16T06:48:05;67.67;;;5.33;;
19301;SDS011;9785;59.362;12.152;2024-02-16T06:50:34;1.40;;;1.30;;
19301;SDS011;9785;59.362;12.152;2024-02-16T06:53:03;1.27;;;1.17;;
19301;SDS011;9785;59.362;12.152;2024-02-16T06:55:32;4.90;;;1.23;;
19301;SDS011;9785;59.362;12.152;2024-02-16T06:58:02;3.00;;;1.40;;
19301;SDS011;9785;59.362;12.152;2024-02-16T07:00:30;1.20;;;1.10;;
19301;SDS011;9785;59.362;12.152;2024-02-16T07:02:59;59.53;;;3.30;;
19301;SDS011;9785;59.362;12.152;2024-02-16T07:05:28;11.60;;;1.47;;
19301;SDS011;9785;59.362;12.152;2024-02-16T07:08:01;32.17;;;3.37;;
19301;SDS011;9785;59.362;12.152;2024-02-16T07:10:30;14.03;;;1.70;;
19301;SDS011;9785;59.362;12.152;2024-02-16T07:12:59;21.63;;;2.50;;
19301;SDS011;9785;59.362;12.152;2024-02-16T07:15:29;9.70;;;2.17;;
19301;SDS011;9785;59.362;12.152;2024-02-16T07:17:58;40.97;;;2.50;;
19301;SDS011;9785;59.362;12.152;2024-02-16T07:20:27;3.10;;;1.80;;
19301;SDS011;9785;59.362;12.152;2024-02-16T07:22:56;3.90;;;1.83;;
19301;SDS011;9785;59.362;12.152;2024-02-16T07:25:24;1.83;;;1.70;;
19301;SDS011;9785;59.362;12.152;2024-02-16T07:27:54;3.10;;;1.70;;
19301;SDS011;9785;59.362;12.152;2024-02-16T07:30:22;5.30;;;1.20;;
19301;SDS011;9785;59.362;12.152;2024-02-16T07:33:04;5.20;;;0.80;;
19301;SDS011;9785;59.362;12.152;2024-02-16T07:35:33;0.83;;;0.60;;
19301;SDS011;9785;59.362;12.152;2024-02-16T07:38:02;0.60;;;0.60;;
19301;SDS011;9785;59.362;12.152;2024-02-16T07:40:31;1.70;;;0.60;;
19301;SDS011;9785;59.362;12.152;2024-02-16T07:43:00;65.47;;;2.80;;
19301;SDS011;9785;59.362;12.152;2024-02-16T07:45:29;1.07;;;0.70;;
19301;SDS011;9785;59.362;12.152;2024-02-16T07:47:57;0.83;;;0.63;;
19301;SDS011;9785;59.362;12.152;2024-02-16T07:50:33;7.37;;;1.00;;
19301;SDS011;9785;59.362;12.152;2024-02-16T07:53:01;8.07;;;1.00;;
19301;SDS011;9785;59.362;12.152;2024-02-16T07:55:29;37.80;;;2.20;;
19301;SDS011;9785;59.362;12.152;2024-02-16T07:57:58;19.17;;;1.30;;
19301;SDS011;9785;59.362;12.152;2024-02-16T08:00:26;11.60;;;1.03;;
19301;SDS011;9785;59.362;12.152;2024-02-16T08:02:55;34.47;;;1.63;;
19301;SDS011;9785;59.362;12.152;2024-02-16T08:05:24;8.70;;;1.23;;
19301;SDS011;9785;59.362;12.152;2024-02-16T08:07:54;70.57;;;2.83;;
19301;SDS011;9785;59.362;12.152;2024-02-16T08:10:23;79.23;;;2.40;;
19301;SDS011;9785;59.362;12.152;2024-02-16T08:12:52;49.17;;;1.93;;
19301;SDS011;9785;59.362;12.152;2024-02-16T08:15:20;22.77;;;1.50;;
19301;SDS011;9785;59.362;12.152;2024-02-16T08:17:51;57.30;;;2.10;;
19301;SDS011;9785;59.362;12.152;2024-02-16T08:20:20;40.93;;;1.70;;
19301;SDS011;9785;59.362;12.152;2024-02-16T08:22:49;12.63;;;0.83;;
19301;SDS011;9785;59.362;12.152;2024-02-16T08:25:18;49.90;;;1.93;;
19301;SDS011;9785;59.362;12.152;2024-02-16T08:27:47;2.40;;;0.20;;
19301;SDS011;9785;59.362;12.152;2024-02-16T08:30:17;1.93;;;0.43;;
19301;SDS011;9785;59.362;12.152;2024-02-16T08:32:45;23.90;;;1.40;;
19301;SDS011;9785;59.362;12.152;2024-02-16T08:35:14;122.50;;;6.63;;
19301;SDS011;9785;59.362;12.152;2024-02-16T08:37:44;41.33;;;3.93;;
19301;SDS011;9785;59.362;12.152;2024-02-16T08:40:12;73.27;;;6.90;;
19301;SDS011;9785;59.362;12.152;2024-02-16T08:42:43;181.90;;;5.60;;
19301;SDS011;9785;59.362;12.152;2024-02-16T08:45:11;85.40;;;6.53;;
19301;SDS011;9785;59.362;12.152;2024-02-16T08:47:40;149.47;;;6.50;;
19301;SDS011;9785;59.362;12.152;2024-02-16T08:50:08;77.60;;;6.40;;
19301;SDS011;9785;59.362;12.152;2024-02-16T08:52:37;117.50;;;5.13;;
19301;SDS011;9785;59.362;12.152;2024-02-16T08:55:06;162.80;;;5.27;;
19301;SDS011;9785;59.362;12.152;2024-02-16T08:57:35;82.50;;;4.20;;
19301;SDS011;9785;59.362;12.152;2024-02-16T09:00:06;100.47;;;3.37;;
19301;SDS011;9785;59.362;12.152;2024-02-16T09:02:35;51.73;;;3.40;;
19301;SDS011;9785;59.362;12.152;2024-02-16T09:05:04;55.93;;;2.67;;
19301;SDS011;9785;59.362;12.152;2024-02-16T09:07:36;90.00;;;3.90;;
19301;SDS011;9785;59.362;12.152;2024-02-16T09:10:05;91.93;;;5.17;;
19301;SDS011;9785;59.362;12.152;2024-02-16T09:12:34;147.80;;;5.30;;
19301;SDS011;9785;59.362;12.152;2024-02-16T09:15:03;85.60;;;3.20;;
19301;SDS011;9785;59.362;12.152;2024-02-16T09:17:35;147.97;;;5.27;;
19301;SDS011;9785;59.362;12.152;2024-02-16T09:20:03;159.70;;;5.07;;
19301;SDS011;9785;59.362;12.152;2024-02-16T09:22:35;90.30;;;3.07;;
19301;SDS011;9785;59.362;12.152;2024-02-16T09:25:04;108.83;;;3.73;;
19301;SDS011;9785;59.362;12.152;2024-02-16T09:27:33;123.73;;;4.60;;
19301;SDS011;9785;59.362;12.152;2024-02-16T09:30:07;170.27;;;6.63;;
19301;SDS011;9785;59.362;12.152;2024-02-16T09:32:38;56.50;;;3.40;;
19301;SDS011;9785;59.362;12.152;2024-02-16T09:35:07;7.30;;;1.43;;
19301;SDS011;9785;59.362;12.152;2024-02-16T09:37:38;108.70;;;4.83;;
19301;SDS011;9785;59.362;12.152;2024-02-16T09:40:07;8.00;;;0.90;;
19301;SDS011;9785;59.362;12.152;2024-02-16T09:42:40;21.80;;;1.63;;
19301;SDS011;9785;59.362;12.152;2024-02-16T09:45:10;10.33;;;0.87;;
19301;SDS011;9785;59.362;12.152;2024-02-16T09:47:42;5.73;;;0.60;;
19301;SDS011;9785;59.362;12.152;2024-02-16T09:50:26;49.93;;;1.83;;
19301;SDS011;9785;59.362;12.152;2024-02-16T09:52:55;0.50;;;0.50;;
19301;SDS011;9785;59.362;12.152;2024-02-16T09:55:25;46.90;;;2.73;;
19301;SDS011;9785;59.362;12.152;2024-02-16T09:57:59;58.93;;;3.70;;
19301;SDS011;9785;59.362;12.152;2024-02-16T10:00:30;117.83;;;4.43;;
19301;SDS011;9785;59.362;12.152;2024-02-16T10:02:58;138.33;;;5.30;;
19301;SDS011;9785;59.362;12.152;2024-02-16T10:05:26;31.43;;;1.20;;
19301;SDS011;9785;59.362;12.152;2024-02-16T10:07:57;70.20;;;2.33;;
19301;SDS011;9785;59.362;12.152;2024-02-16T10:10:26;233.23;;;8.30;;
19301;SDS011;9785;59.362;12.152;2024-02-16T10:13:00;129.57;;;5.10;;
19301;SDS011;9785;59.362;12.152;2024-02-16T10:15:32;90.87;;;3.00;;
19301;SDS011;9785;59.362;12.152;2024-02-16T10:18:00;59.47;;;3.47;;
19301;SDS011;9785;59.362;12.152;2024-02-16T10:20:31;29.47;;;1.40;;
19301;SDS011;9785;59.362;12.152;2024-02-16T10:23:04;133.03;;;5.37;;
19301;SDS011;9785;59.362;12.152;2024-02-16T10:25:33;118.70;;;6.90;;
19301;SDS011;9785;59.362;12.152;2024-02-16T10:28:03;102.33;;;3.03;;
19301;SDS011;9785;59.362;12.152;2024-02-16T10:30:35;137.27;;;4.47;;
19301;SDS011;9785;59.362;12.152;2024-02-16T10:33:05;68.77;;;3.40;;
19301;SDS011;9785;59.362;12.152;2024-02-16T10:35:35;53.10;;;3.23;;
19301;SDS011;9785;59.362;12.152;2024-02-16T10:38:04;13.20;;;0.93;;
19301;SDS011;9785;59.362;12.152;2024-02-16T10:40:37;11.23;;;1.40;;
19301;SDS011;9785;59.362;12.152;2024-02-16T10:43:06;8.77;;;1.30;;
19301;SDS011;9785;59.362;12.152;2024-02-16T10:45:37;78.73;;;3.43;;
19301;SDS011;9785;59.362;12.152;2024-02-16T10:48:07;148.90;;;6.27;;
19301;SDS011;9785;59.362;12.152;2024-02-16T10:50:36;14.60;;;1.97;;
19301;SDS011;9785;59.362;12.152;2024-02-16T10:53:08;29.70;;;2.83;;
19301;SDS011;9785;59.362;12.152;2024-02-16T10:55:40;213.33;;;7.67;;
19301;SDS011;9785;59.362;12.152;2024-02-16T10:58:10;154.00;;;5.60;;
19301;SDS011;9785;59.362;12.152;2024-02-16T11:00:49;97.87;;;4.70;;
19301;SDS011;9785;59.362;12.152;2024-02-16T11:03:21;139.70;;;5.73;;
19301;SDS011;9785;59.362;12.152;2024-02-16T11:05:52;331.00;;;10.73;;
19301;SDS011;9785;59.362;12.152;2024-02-16T11:08:23;356.47;;;13.67;;
19301;SDS011;9785;59.362;12.152;2024-02-16T11:10:56;346.40;;;12.97;;
19301;SDS011;9785;59.362;12.152;2024-02-16T11:13:25;330.17;;;11.60;;
19301;SDS011;9785;59.362;12.152;2024-02-16T11:15:59;212.03;;;7.83;;
19301;SDS011;9785;59.362;12.152;2024-02-16T11:18:29;249.43;;;7.00;;
19301;SDS011;9785;59.362;12.152;2024-02-16T11:21:02;265.33;;;10.83;;
19301;SDS011;9785;59.362;12.152;2024-02-16T11:23:32;164.73;;;6.37;;
19301;SDS011;9785;59.362;12.152;2024-02-16T11:26:03;284.40;;;10.93;;
19301;SDS011;9785;59.362;12.152;2024-02-16T11:28:35;246.83;;;8.47;;
19301;SDS011;9785;59.362;12.152;2024-02-16T11:31:05;188.47;;;7.30;;
19301;SDS011;9785;59.362;12.152;2024-02-16T11:33:34;184.20;;;7.83;;
19301;SDS011;9785;59.362;12.152;2024-02-16T11:36:04;262.83;;;9.77;;
19301;SDS011;9785;59.362;12.152;2024-02-16T11:38:35;265.10;;;9.30;;
19301;SDS011;9785;59.362;12.152;2024-02-16T11:41:03;355.37;;;12.93;;
19301;SDS011;9785;59.362;12.152;2024-02-16T11:43:32;190.73;;;6.97;;
19301;SDS011;9785;59.362;12.152;2024-02-16T11:46:11;282.13;;;10.50;;
19301;SDS011;9785;59.362;12.152;2024-02-16T11:48:40;301.50;;;9.33;;
19301;SDS011;9785;59.362;12.152;2024-02-16T11:51:10;294.67;;;12.47;;
19301;SDS011;9785;59.362;12.152;2024-02-16T11:53:43;280.50;;;9.90;;
19301;SDS011;9785;59.362;12.152;2024-02-16T11:56:21;363.47;;;12.90;;
19301;SDS011;9785;59.362;12.152;2024-02-16T11:58:50;229.57;;;12.37;;
19301;SDS011;9785;59.362;12.152;2024-02-16T12:01:21;407.43;;;12.97;;
19301;SDS011;9785;59.362;12.152;2024-02-16T12:03:49;365.87;;;17.37;;
19301;SDS011;9785;59.362;12.152;2024-02-16T12:06:21;366.30;;;13.93;;
19301;SDS011;9785;59.362;12.152;2024-02-16T12:08:49;389.83;;;14.90;;
19301;SDS011;9785;59.362;12.152;2024-02-16T12:11:20;605.77;;;24.53;;
19301;SDS011;9785;59.362;12.152;2024-02-16T12:13:49;336.80;;;12.67;;
19301;SDS011;9785;59.362;12.152;2024-02-16T12:16:18;436.90;;;17.10;;
19301;SDS011;9785;59.362;12.152;2024-02-16T12:18:48;220.13;;;9.47;;
19301;SDS011;9785;59.362;12.152;2024-02-16T12:21:17;328.60;;;13.33;;
19301;SDS011;9785;59.362;12.152;2024-02-16T12:23:47;367.60;;;11.33;;
19301;SDS011;9785;59.362;12.152;2024-02-16T12:26:15;242.23;;;9.47;;
19301;SDS011;9785;59.362;12.152;2024-02-16T12:28:44;360.10;;;12.00;;
19301;SDS011;9785;59.362;12.152;2024-02-16T12:31:17;298.07;;;12.23;;
19301;SDS011;9785;59.362;12.152;2024-02-16T12:33:48;322.10;;;11.83;;
19301;SDS011;9785;59.362;12.152;2024-02-16T12:36:16;236.87;;;9.07;;
19301;SDS011;9785;59.362;12.152;2024-02-16T12:38:45;438.23;;;15.10;;
19301;SDS011;9785;59.362;12.152;2024-02-16T12:41:13;372.00;;;13.27;;
19301;SDS011;9785;59.362;12.152;2024-02-16T12:43:42;308.83;;;11.83;;
19301;SDS011;9785;59.362;12.152;2024-02-16T12:46:10;264.97;;;10.83;;
19301;SDS011;9785;59.362;12.152;2024-02-16T12:48:38;150.17;;;6.40;;
19301;SDS011;9785;59.362;12.152;2024-02-16T12:51:10;232.80;;;8.30;;
19301;SDS011;9785;59.362;12.152;2024-02-16T12:53:39;295.80;;;9.87;;
19301;SDS011;9785;59.362;12.152;2024-02-16T12:56:07;57.83;;;4.00;;
19301;SDS011;9785;59.362;12.152;2024-02-16T12:58:36;29.97;;;3.70;;
19301;SDS011;9785;59.362;12.152;2024-02-16T13:01:05;37.60;;;3.27;;
19301;SDS011;9785;59.362;12.152;2024-02-16T13:03:44;44.87;;;3.33;;
19301;SDS011;9785;59.362;12.152;2024-02-16T13:06:14;21.23;;;3.37;;
19301;SDS011;9785;59.362;12.152;2024-02-16T13:08:43;641.67;;;26.40;;
19301;SDS011;9785;59.362;12.152;2024-02-16T13:11:11;244.07;;;10.97;;
19301;SDS011;9785;59.362;12.152;2024-02-16T13:13:40;129.00;;;6.60;;
19301;SDS011;9785;59.362;12.152;2024-02-16T13:16:08;103.70;;;6.03;;
19301;SDS011;9785;59.362;12.152;2024-02-16T13:18:37;456.97;;;18.80;;
19301;SDS011;9785;59.362;12.152;2024-02-16T13:21:06;166.00;;;7.33;;
19301;SDS011;9785;59.362;12.152;2024-02-16T13:23:36;243.53;;;7.87;;
19301;SDS011;9785;59.362;12.152;2024-02-16T13:26:05;518.10;;;18.37;;
19301;SDS011;9785;59.362;12.152;2024-02-16T13:28:33;121.53;;;5.40;;
19301;SDS011;9785;59.362;12.152;2024-02-16T13:31:02;220.60;;;8.70;;
19301;SDS011;9785;59.362;12.152;2024-02-16T13:33:30;69.20;;;4.40;;
19301;SDS011;9785;59.362;12.152;2024-02-16T13:35:59;109.70;;;5.30;;
19301;SDS011;9785;59.362;12.152;2024-02-16T13:38:28;128.20;;;6.13;;
19301;SDS011;9785;59.362;12.152;2024-02-16T13:40:58;463.27;;;14.83;;
19301;SDS011;9785;59.362;12.152;2024-02-16T13:43:26;153.33;;;6.27;;
19301;SDS011;9785;59.362;12.152;2024-02-16T13:45:55;51.20;;;4.40;;
19301;SDS011;9785;59.362;12.152;2024-02-16T13:48:25;36.67;;;3.50;;
19301;SDS011;9785;59.362;12.152;2024-02-16T13:50:53;242.27;;;9.67;;
19301;SDS011;9785;59.362;12.152;2024-02-16T13:53:23;48.43;;;4.17;;
19301;SDS011;9785;59.362;12.152;2024-02-16T13:55:54;115.00;;;6.50;;
19301;SDS011;9785;59.362;12.152;2024-02-16T13:58:28;157.67;;;6.00;;
19301;SDS011;9785;59.362;12.152;2024-02-16T14:00:57;177.97;;;6.93;;
19301;SDS011;9785;59.362;12.152;2024-02-16T14:03:26;178.57;;;6.27;;
19301;SDS011;9785;59.362;12.152;2024-02-16T14:05:55;197.23;;;6.83;;
19301;SDS011;9785;59.362;12.152;2024-02-16T14:08:24;60.50;;;2.57;;
19301;SDS011;9785;59.362;12.152;2024-02-16T14:10:53;145.30;;;4.07;;
19301;SDS011;9785;59.362;12.152;2024-02-16T14:13:22;216.13;;;6.40;;
19301;SDS011;9785;59.362;12.152;2024-02-16T14:15:53;89.70;;;4.43;;
19301;SDS011;9785;59.362;12.152;2024-02-16T14:18:21;151.20;;;5.77;;
19301;SDS011;9785;59.362;12.152;2024-02-16T14:21:01;116.63;;;4.50;;
19301;SDS011;9785;59.362;12.152;2024-02-16T14:23:30;220.53;;;6.17;;
19301;SDS011;9785;59.362;12.152;2024-02-16T14:25:59;185.67;;;5.77;;
19301;SDS011;9785;59.362;12.152;2024-02-16T14:28:27;221.27;;;7.00;;
19301;SDS011;9785;59.362;12.152;2024-02-16T14:30:58;152.60;;;6.87;;
19301;SDS011;9785;59.362;12.152;2024-02-16T14:33:26;339.40;;;11.40;;
19301;SDS011;9785;59.362;12.152;2024-02-16T14:36:00;163.23;;;7.30;;
19301;SDS011;9785;59.362;12.152;2024-02-16T14:38:29;356.33;;;9.37;;
19301;SDS011;9785;59.362;12.152;2024-02-16T14:40:58;209.30;;;7.63;;
19301;SDS011;9785;59.362;12.152;2024-02-16T14:43:30;193.60;;;6.17;;
19301;SDS011;9785;59.362;12.152;2024-02-16T14:46:00;85.53;;;2.97;;
19301;SDS011;9785;59.362;12.152;2024-02-16T14:48:30;114.00;;;4.40;;
19301;SDS011;9785;59.362;12.152;2024-02-16T14:51:00;70.03;;;2.77;;